Marion, SD (57043)

1:26 PM CDT on March 23, 2017 (GMT -0500)
Turkey Ridge | | Change Station

Elev 1644 ft 43.26 °N, 97.36 °W | Updated 6 minutes ago

Overcast
Overcast
45.3 °F
Feels Like 43 °F
N
5.0
Wind Variable Wind from South
Gusts 5.0 mph

Today
High -- | Low -- °F
--% Chance of Precip.
Yesterday
High -- | Low -- °F
Precip. -- in
Pressure 29.83 in
Visibility 3.0 miles
Clouds Scattered Clouds 1000 ft
Overcast 2000 ft
Windchill 43 °F
Dew Point 39 °F
Humidity 79%
Rainfall 0.00 in
Snow Depth Not available.
7:26 AM 7:45 PM
Waning Crescent, 21% visible
METAR KFSD 231756Z 13009KT 3SM -RA BR SCT010 OVC020 06/04 A2980 RMK AO2 SFC VIS 4 RAE03B31DZB25E31 SLP100 P0001 60001 T00560039 10072 20039 56035
Pressure 29.83 in
Visibility 3.0 miles
Clouds Scattered Clouds 1000 ft
Overcast 2000 ft
Windchill 43 °F
Dew Point 39 °F
Humidity 79%
Rainfall 0.00 in
Snow Depth Not available.
7:26 AM 7:45 PM
Waning Crescent, 21% visible
METAR KFSD 231756Z 13009KT 3SM -RA BR SCT010 OVC020 06/04 A2980 RMK AO2 SFC VIS 4 RAE03B31DZB25E31 SLP100 P0001 60001 T00560039 10072 20039 56035

Get Severe Weather Alerts

Thanks for signing up!

Be on the lookout for a verification email in your inbox.

You'll start receiving the daily forecast at 8 AM.

×

10-Day Weather Forecast

Almanac

Astronomy

Mar. 23, 2017 Rise Set
Actual Time
Civil Twilight
Nautical Twilight
Astronomical Twilight
Moon
Length of Visible Light
Length of Day
Tomorrow will be .
, % of the Moon is Illuminated

Today's Extremes

State Highs State Lows

Community

WunderPhotos

Upload Photos

1,962,540 photos uploaded!

WunderBlog® & News

Nearby

Air Quality

  Air Quality AQ Index Pollutant
Not available.

Snow Depth

Station Depth Elevation

Earthquake Activity

City Distance Mag. Time & Date
Minimum magnitude displayed is 2.5.

Earthquake Activity

City Distance Mag. Time & Date
Minimum magnitude displayed is 2.5.

Coastal Water Temperatures

Place Temperature

Stations

Nearby Weather Stations

Station Location Temp. Windchill Dew Point Humidity Wind Precip. Elev Updated Type
                   

Watches & Warnings

There are currently no watches in effect.